Time;durP1;ratioP1;P1;durP2;ratioP2;P2;SDS_P1;SDS_P2;PMS_P1;PMS_P2;Temp;Humidity;BMP_temperature;BMP_pressure;BME280_temperature;BME280_humidity;BME280_pressure;Samples;Min_cycle;Max_cycle;Signal;HPM_P1;HPM_P2
2022/05/04 00:01:24;;;;;;;12.30;5.20;;;;;;;1.66;86.74;100354.74;104929;1271;73740;-63
2022/05/04 00:04:12;;;;;;;14.00;4.90;;;;;;;1.62;87.19;100351.73;104727;1274;59742;-66
2022/05/04 00:07:00;;;;;;;11.80;3.70;;;;;;;1.58;87.45;100354.15;104738;1272;61117;-67
2022/05/04 00:09:48;;;;;;;12.80;4.30;;;;;;;1.54;87.58;100352.36;104775;1271;73843;-67
2022/05/04 00:12:36;;;;;;;13.00;3.80;;;;;;;1.51;87.51;100355.27;105085;1271;68101;-66
2022/05/04 00:15:26;;;;;;;12.40;4.10;;;;;;;1.50;88.03;100353.02;105227;1271;71438;-67
2022/05/04 00:18:13;;;;;;;11.60;3.70;;;;;;;1.49;87.86;100351.15;104867;1271;59652;-66
2022/05/04 00:21:01;;;;;;;10.90;3.80;;;;;;;1.46;87.99;100355.98;104878;1271;62257;-66
2022/05/04 00:23:49;;;;;;;10.60;4.10;;;;;;;1.42;88.07;100358.75;105114;1271;72510;-63
2022/05/04 00:26:37;;;;;;;11.00;4.10;;;;;;;1.37;87.98;100360.66;104980;1271;69739;-65
2022/05/04 00:29:25;;;;;;;11.10;4.40;;;;;;;1.31;88.02;100362.06;104858;1271;72562;-65
2022/05/04 00:32:18;;;;;;;11.90;4.70;;;;;;;1.27;87.99;100365.56;104887;1271;59681;-64
2022/05/04 00:35:07;;;;;;;11.60;4.30;;;;;;;1.24;88.03;100366.02;104823;1271;59595;-65
2022/05/04 00:37:55;;;;;;;12.60;4.30;;;;;;;1.20;88.00;100364.89;104888;1271;74743;-65
2022/05/04 00:40:43;;;;;;;11.00;4.20;;;;;;;1.18;88.48;100362.71;105053;1271;67334;-66
2022/05/04 00:43:31;;;;;;;12.60;3.70;;;;;;;1.17;88.43;100364.85;101254;1271;1003826;-66
2022/05/04 00:46:20;;;;;;;11.90;4.20;;;;;;;1.12;88.36;100368.84;104815;1271;60020;-68
2022/05/04 00:49:08;;;;;;;11.90;4.20;;;;;;;1.08;88.62;100365.86;104747;1274;62104;-64
2022/05/04 00:51:57;;;;;;;10.30;3.80;;;;;;;1.03;88.48;100364.96;104776;1271;73011;-66
2022/05/04 00:54:51;;;;;;;11.50;3.90;;;;;;;0.97;88.50;100368.82;104828;1272;68809;-67
2022/05/04 01:00:51;;;;;;;11.70;3.70;;;;;;;0.86;88.71;100375.66;105108;1271;59807;-67
2022/05/04 01:03:40;;;;;;;12.10;3.90;;;;;;;0.83;88.91;100377.83;105019;1271;62633;-68
2022/05/04 01:06:27;;;;;;;9.80;3.60;;;;;;;0.80;88.70;100378.45;105342;1271;72811;-68
2022/05/04 01:09:15;;;;;;;12.10;3.90;;;;;;;0.80;88.92;100376.03;105079;1271;69604;-66
2022/05/04 01:12:04;;;;;;;10.10;3.70;;;;;;;0.77;88.75;100381.20;102860;1271;1003826;-68
2022/05/04 01:14:52;;;;;;;10.20;3.50;;;;;;;0.76;88.83;100381.23;101978;1271;1003875;-68
2022/05/04 01:17:40;;;;;;;10.80;3.60;;;;;;;0.72;88.77;100382.20;105109;1271;59904;-67
2022/05/04 01:20:28;;;;;;;11.00;3.50;;;;;;;0.69;88.65;100391.02;104845;1271;74864;-67
2022/05/04 01:23:16;;;;;;;9.90;3.10;;;;;;;0.64;88.49;100386.31;105016;1271;69612;-67
2022/05/04 01:26:05;;;;;;;10.70;3.00;;;;;;;0.60;88.47;100387.48;105017;1271;71021;-65
2022/05/04 01:28:56;;;;;;;11.30;2.70;;;;;;;0.56;88.75;100385.33;104960;1274;59882;-62
2022/05/04 01:31:43;;;;;;;7.30;2.60;;;;;;;0.54;88.76;100388.18;105051;1271;59659;-64
2022/05/04 01:34:32;;;;;;;10.90;3.20;;;;;;;0.52;89.03;100390.01;105207;1271;74360;-65
2022/05/04 01:37:19;;;;;;;9.90;2.90;;;;;;;0.51;88.98;100390.56;105090;1271;69401;-67
2022/05/04 01:40:08;;;;;;;8.20;2.70;;;;;;;0.50;88.96;100395.11;105061;1270;74571;-68
2022/05/04 01:42:56;;;;;;;9.90;2.70;;;;;;;0.49;89.14;100399.69;104753;1272;60243;-67
2022/05/04 01:45:45;;;;;;;8.10;2.60;;;;;;;0.47;89.03;100398.36;104893;1271;59736;-66
2022/05/04 01:48:33;;;;;;;9.40;2.50;;;;;;;0.43;88.99;100403.54;105066;1271;74384;-67
2022/05/04 01:51:21;;;;;;;8.90;2.90;;;;;;;0.39;89.05;100403.65;104843;1271;67539;-66
2022/05/04 01:54:09;;;;;;;9.10;2.80;;;;;;;0.35;88.92;100404.66;104823;1271;74246;-67
2022/05/04 01:56:57;;;;;;;9.40;2.90;;;;;;;0.32;88.97;100402.64;104962;1271;59873;-62
2022/05/04 01:59:45;;;;;;;10.90;3.00;;;;;;;0.31;89.07;100407.04;105012;1274;61739;-60
2022/05/04 02:02:36;;;;;;;9.40;2.60;;;;;;;0.31;89.14;100408.79;104924;1273;72392;-63
2022/05/04 02:05:27;;;;;;;9.40;2.60;;;;;;;0.30;89.22;100411.05;104985;1274;67657;-64
2022/05/04 02:08:15;;;;;;;9.20;2.80;;;;;;;0.30;89.09;100406.34;104876;1274;71726;-65
2022/05/04 02:11:03;;;;;;;9.70;3.00;;;;;;;0.30;89.10;100405.31;105055;1274;60326;-62
2022/05/04 02:13:51;;;;;;;9.50;2.80;;;;;;;0.31;89.25;100403.39;104853;1274;59733;-65
2022/05/04 02:16:39;;;;;;;10.40;3.30;;;;;;;0.30;88.97;100404.45;104917;1274;72172;-64
2022/05/04 02:19:27;;;;;;;8.60;2.90;;;;;;;0.27;88.54;100409.60;104955;1274;68764;-66
2022/05/04 02:22:15;;;;;;;9.80;2.60;;;;;;;0.19;88.52;100403.73;104869;1274;72016;-64
2022/05/04 02:25:04;;;;;;;10.30;3.10;;;;;;;0.20;88.60;100412.98;104869;1274;59637;-65
2022/05/04 02:27:52;;;;;;;11.30;3.40;;;;;;;0.19;88.63;100415.10;104890;1274;60534;-64
2022/05/04 02:30:41;;;;;;;14.00;3.60;;;;;;;0.18;88.83;100416.69;104902;1274;72441;-69
2022/05/04 02:33:29;;;;;;;11.70;3.20;;;;;;;0.19;89.01;100415.08;105457;1274;69590;-66
2022/05/04 02:39:23;;;;;;;10.50;3.30;;;;;;;0.22;88.87;100412.88;105078;1273;59840;-64
2022/05/04 02:42:11;;;;;;;12.20;3.30;;;;;;;0.24;88.90;100414.41;105154;1274;59675;-65
2022/05/04 02:45:06;;;;;;;12.90;3.20;;;;;;;0.22;88.66;100420.39;105106;1274;72225;-66
2022/05/04 02:47:53;;;;;;;12.70;3.20;;;;;;;0.21;88.58;100419.21;104809;1274;68843;-67
2022/05/04 02:50:41;;;;;;;12.00;3.10;;;;;;;0.17;88.45;100419.31;104741;1274;74456;-66
2022/05/04 02:53:29;;;;;;;11.50;3.30;;;;;;;0.15;88.47;100420.25;105053;1274;59791;-64
2022/05/04 02:56:17;;;;;;;13.50;3.30;;;;;;;0.13;88.41;100419.26;104767;1274;60709;-64
2022/05/04 02:59:05;;;;;;;13.20;3.10;;;;;;;0.13;88.60;100417.70;104947;1271;72195;-67
2022/05/04 03:05:03;;;;;;;10.50;2.70;;;;;;;0.15;88.87;100423.38;104881;1271;72550;-65
2022/05/04 03:07:51;;;;;;;9.80;3.60;;;;;;;0.17;88.94;100425.93;104826;1272;59810;-65
2022/05/04 03:13:46;;;;;;;9.70;2.90;;;;;;;0.23;88.72;100429.59;104871;1271;73217;-65
2022/05/04 03:16:36;;;;;;;9.20;2.80;;;;;;;0.24;88.71;100433.06;104644;1271;67047;-68
2022/05/04 03:19:25;;;;;;;7.50;2.80;;;;;;;0.23;88.45;100436.58;104953;1271;73505;-68
2022/05/04 03:22:13;;;;;;;10.30;2.90;;;;;;;0.23;88.32;100435.02;105025;1271;60024;-70
2022/05/04 03:25:06;;;;;;;8.80;2.90;;;;;;;0.21;88.37;100430.19;104741;1271;60309;-69
2022/05/04 03:27:54;;;;;;;9.60;2.80;;;;;;;0.21;88.53;100437.00;104805;1271;72376;-68
2022/05/04 03:30:43;;;;;;;9.20;3.00;;;;;;;0.21;88.51;100438.02;105019;1271;68104;-69
2022/05/04 03:33:31;;;;;;;9.40;2.50;;;;;;;0.25;88.56;100436.71;104817;1271;73461;-69
2022/05/04 03:36:19;;;;;;;9.20;2.90;;;;;;;0.27;88.55;100435.25;104790;1271;60277;-69
2022/05/04 03:39:09;;;;;;;8.60;2.70;;;;;;;0.31;88.34;100434.44;104831;1271;59583;-69
2022/05/04 03:41:57;;;;;;;7.10;2.40;;;;;;;0.36;88.63;100438.84;104755;1271;73144;-68
2022/05/04 03:44:46;;;;;;;8.50;3.10;;;;;;;0.41;88.55;100441.14;105049;1271;65825;-69
2022/05/04 03:47:34;;;;;;;8.50;2.70;;;;;;;0.46;88.37;100449.00;104892;1274;72904;-67
2022/05/04 03:50:22;;;;;;;9.90;2.70;;;;;;;0.41;88.22;100438.86;104754;1271;60135;-66
2022/05/04 03:53:11;;;;;;;8.80;2.80;;;;;;;0.50;88.20;100449.94;105081;1271;62038;-67
2022/05/04 03:55:58;;;;;;;8.70;2.70;;;;;;;0.54;88.31;100455.78;104648;1273;73475;-69
2022/05/04 03:58:47;;;;;;;9.00;2.50;;;;;;;0.59;88.46;100458.95;104848;1271;69811;-68
2022/05/04 04:01:36;;;;;;;10.20;3.20;;;;;;;0.68;89.14;100460.23;104856;1271;72793;-68
2022/05/04 04:04:26;;;;;;;9.70;2.50;;;;;;;0.81;89.44;100459.30;105193;1271;59791;-70
2022/05/04 04:07:16;;;;;;;10.60;2.50;;;;;;;0.96;89.43;100459.36;104759;1271;60256;-69
2022/05/04 04:10:04;;;;;;;10.80;2.80;;;;;;;1.15;89.56;100455.96;104831;1271;72709;-70
2022/05/04 04:12:52;;;;;;;9.60;3.10;;;;;;;1.37;89.20;100460.34;104643;1271;67310;-67
2022/05/04 04:15:41;;;;;;;10.40;3.70;;;;;;;1.56;88.85;100456.02;104850;1271;73499;-67
2022/05/04 04:18:29;;;;;;;12.80;2.70;;;;;;;1.77;88.56;100460.00;104912;1271;59973;-72
2022/05/04 04:24:24;;;;;;;11.20;1.80;;;;;;;2.30;86.51;100469.86;104890;1271;74258;-69
2022/05/04 04:27:11;;;;;;;9.50;2.10;;;;;;;2.53;85.59;100464.96;104922;1271;66525;-65
2022/05/04 04:29:59;;;;;;;11.30;2.50;;;;;;;2.74;83.74;100464.16;104900;1271;74755;-66
2022/05/04 04:32:47;;;;;;;8.00;1.80;;;;;;;2.94;82.82;100464.78;104744;1271;59913;-67
2022/05/04 04:35:38;;;;;;;7.40;1.80;;;;;;;3.13;80.29;100464.58;104912;1273;59563;-68
2022/05/04 04:38:27;;;;;;;6.30;1.50;;;;;;;3.31;76.42;100466.30;105060;1271;74689;-69
2022/05/04 04:41:15;;;;;;;10.90;2.00;;;;;;;3.48;74.70;100461.20;104889;1271;68562;-71
2022/05/04 04:44:03;;;;;;;6.60;1.60;;;;;;;3.65;72.27;100465.23;104852;1270;73044;-69
2022/05/04 04:46:51;;;;;;;5.80;1.50;;;;;;;3.81;70.18;100467.19;105095;1271;59851;-68
2022/05/04 04:49:39;;;;;;;7.50;1.70;;;;;;;3.96;68.58;100466.04;105062;1271;62039;-70
2022/05/04 04:52:30;;;;;;;8.00;1.80;;;;;;;4.09;67.77;100466.29;105092;1271;73563;-68
2022/05/04 04:55:18;;;;;;;10.90;1.70;;;;;;;4.24;64.66;100468.09;104731;1271;69776;-69
2022/05/04 04:58:06;;;;;;;12.50;2.20;;;;;;;4.40;64.03;100471.76;105262;1271;72508;-67
2022/05/04 05:00:54;;;;;;;7.10;1.80;;;;;;;4.59;61.87;100472.84;104926;1271;59794;-70
2022/05/04 05:03:42;;;;;;;6.30;1.80;;;;;;;4.79;58.78;100478.97;105089;1271;59611;-67
2022/05/04 05:06:30;;;;;;;8.70;1.70;;;;;;;5.02;58.70;100474.88;104789;1271;72241;-66
2022/05/04 05:09:18;;;;;;;7.50;1.50;;;;;;;5.29;57.75;100476.58;105120;1271;69646;-68
2022/05/04 05:12:07;;;;;;;8.50;1.90;;;;;;;5.70;58.75;100477.55;104979;1271;73910;-66
2022/05/04 05:18:03;;;;;;;7.30;1.40;;;;;;;8.09;51.43;100468.32;104913;1271;59791;-67
2022/05/04 05:20:52;;;;;;;7.50;1.50;;;;;;;9.94;48.06;100463.01;104975;1271;74768;-70
2022/05/04 05:23:42;;;;;;;6.50;1.40;;;;;;;11.68;39.55;100460.27;105306;1271;67792;-68
2022/05/04 05:26:32;;;;;;;7.50;1.40;;;;;;;13.06;36.51;100454.12;104726;1271;73157;-69
2022/05/04 05:29:23;;;;;;;7.10;1.40;;;;;;;14.35;33.71;100452.06;105041;1271;59795;-68
2022/05/04 05:32:12;;;;;;;7.90;1.60;;;;;;;15.33;31.10;100450.37;104733;1271;61278;-68
2022/05/04 05:35:01;;;;;;;7.70;1.60;;;;;;;15.95;28.72;100446.91;106219;1271;72529;-68
2022/05/04 05:37:48;;;;;;;6.60;1.50;;;;;;;16.26;27.71;100445.67;107414;1271;67444;-67
2022/05/04 05:40:39;;;;;;;7.60;2.10;;;;;;;16.50;27.24;100444.08;106439;1271;73799;-68
2022/05/04 05:43:28;;;;;;;6.80;1.50;;;;;;;16.34;26.61;100445.19;105468;1271;59675;-69
2022/05/04 05:46:16;;;;;;;6.40;1.70;;;;;;;16.58;27.34;100447.08;104996;1272;60321;-67
2022/05/04 05:49:04;;;;;;;6.90;1.70;;;;;;;16.66;25.83;100446.63;105033;1271;74799;-72
2022/05/04 05:51:52;;;;;;;9.00;1.80;;;;;;;16.89;26.14;100448.00;105006;1271;69277;-68
2022/05/04 05:54:40;;;;;;;5.60;1.60;;;;;;;17.24;25.60;100444.35;104679;1271;74233;-68
2022/05/04 05:57:28;;;;;;;6.80;1.60;;;;;;;17.67;24.54;100434.64;104967;1271;59727;-69
2022/05/04 06:00:21;;;;;;;5.70;1.40;;;;;;;18.21;23.90;100440.36;104883;1271;60307;-68
2022/05/04 06:03:09;;;;;;;11.50;1.60;;;;;;;18.54;22.89;100442.48;104817;1271;74511;-68
2022/05/04 06:05:57;;;;;;;8.80;1.70;;;;;;;19.01;23.36;100442.75;104735;1272;69445;-66
2022/05/04 06:08:44;;;;;;;7.80;1.80;;;;;;;19.08;21.91;100441.05;105078;1271;73396;-68
2022/05/04 06:11:35;;;;;;;10.70;2.50;;;;;;;19.54;22.21;100432.14;104838;1271;60144;-67
2022/05/04 06:14:24;;;;;;;12.90;1.90;;;;;;;19.78;20.65;100439.53;104944;1271;61401;-69
2022/05/04 06:17:12;;;;;;;7.10;1.70;;;;;;;19.84;20.01;100437.27;105072;1271;73238;-68
2022/05/04 06:20:01;;;;;;;8.90;1.60;;;;;;;19.74;20.04;100442.84;104717;1271;69818;-65
2022/05/04 06:22:53;;;;;;;7.80;1.70;;;;;;;19.90;19.52;100447.24;104825;1271;73409;-67
2022/05/04 06:25:42;;;;;;;8.00;1.50;;;;;;;19.34;20.02;100448.09;104787;1271;59848;-65
2022/05/04 06:28:31;;;;;;;5.00;1.10;;;;;;;19.50;20.42;100444.96;104827;1271;59899;-67
2022/05/04 06:34:26;;;;;;;8.40;1.70;;;;;;;19.96;18.99;100439.26;105036;1271;68551;-67
2022/05/04 06:37:14;;;;;;;7.70;1.70;;;;;;;20.25;19.14;100440.54;104914;1271;71731;-68
2022/05/04 06:40:04;;;;;;;10.50;1.70;;;;;;;20.46;19.23;100441.23;105175;1271;59886;-67
2022/05/04 06:42:52;;;;;;;9.30;1.80;;;;;;;21.10;18.87;100440.16;104931;1271;61443;-68
2022/05/04 06:45:40;;;;;;;8.40;1.70;;;;;;;21.64;18.29;100437.46;104949;1271;74966;-68
2022/05/04 06:48:28;;;;;;;7.90;1.40;;;;;;;21.86;16.74;100436.99;104830;1271;67543;-66
2022/05/04 06:51:15;;;;;;;9.00;1.70;;;;;;;22.07;17.32;100431.55;104922;1271;73935;-67
2022/05/04 06:54:04;;;;;;;7.80;1.90;;;;;;;22.47;16.67;100433.48;104786;1271;59724;-68
2022/05/04 06:57:12;;;;;;;8.60;1.30;;;;;;;22.95;16.93;100433.36;105111;1271;62163;-69
2022/05/04 07:00:08;;;;;;;8.20;1.40;;;;;;;23.71;16.16;100432.05;104994;1271;73032;-69
2022/05/04 07:02:56;;;;;;;10.20;1.30;;;;;;;23.63;15.66;100427.27;104788;1271;68985;-67
2022/05/04 07:05:44;;;;;;;6.50;1.10;;;;;;;23.15;15.56;100433.49;104788;1271;74557;-68
2022/05/04 07:08:33;;;;;;;10.60;1.60;;;;;;;22.93;16.06;100431.83;104786;1271;59748;-70
2022/05/04 07:11:21;;;;;;;8.70;1.50;;;;;;;22.74;16.10;100435.58;104763;1271;60268;-69
2022/05/04 07:14:09;;;;;;;7.70;1.30;;;;;;;22.51;16.61;100437.33;104983;1271;74791;-70
2022/05/04 07:16:57;;;;;;;7.50;1.50;;;;;;;22.29;16.29;100440.36;104791;1271;68615;-69
2022/05/04 07:19:46;;;;;;;6.80;1.60;;;;;;;21.80;15.89;100439.94;104805;1271;73480;-68
2022/05/04 07:22:36;;;;;;;7.10;1.30;;;;;;;21.30;15.71;100443.02;104879;1271;59664;-69
2022/05/04 07:25:25;;;;;;;5.00;1.10;;;;;;;21.10;16.57;100441.79;104722;1271;59654;-69
2022/05/04 07:28:13;;;;;;;7.10;1.60;;;;;;;21.16;16.61;100446.21;104780;1271;73564;-69
2022/05/04 07:31:01;;;;;;;10.80;1.70;;;;;;;21.45;16.83;100440.09;104911;1271;68078;-69
2022/05/04 07:33:51;;;;;;;13.50;1.80;;;;;;;21.69;16.70;100439.41;104773;1271;74223;-68
2022/05/04 07:36:41;;;;;;;7.10;1.40;;;;;;;21.84;16.27;100441.50;104982;1271;59775;-67
2022/05/04 07:42:39;;;;;;;9.10;1.40;;;;;;;22.10;15.95;100442.88;105067;1271;72950;-69
2022/05/04 07:45:31;;;;;;;7.70;1.60;;;;;;;21.89;14.59;100449.01;104901;1271;68951;-70
2022/05/04 07:48:19;;;;;;;7.20;1.50;;;;;;;21.82;15.16;100441.36;105062;1271;74360;-70
2022/05/04 07:51:07;;;;;;;8.50;1.90;;;;;;;22.01;15.57;100443.77;104822;1270;59695;-68
2022/05/04 07:53:55;;;;;;;11.60;1.40;;;;;;;22.24;15.87;100437.31;104894;1271;59657;-70
2022/05/04 07:56:43;;;;;;;8.70;1.50;;;;;;;22.35;16.16;100442.79;104869;1271;74664;-72
2022/05/04 07:59:31;;;;;;;7.60;1.50;;;;;;;22.12;15.58;100438.48;104991;1271;69711;-69
2022/05/04 08:05:32;;;;;;;5.80;1.20;;;;;;;21.75;15.91;100449.36;105072;1270;59728;-72
2022/05/04 08:08:20;;;;;;;10.70;1.50;;;;;;;21.56;15.97;100451.25;104980;1271;60528;-68
2022/05/04 08:11:08;;;;;;;7.10;1.40;;;;;;;21.45;15.42;100450.57;105024;1271;72676;-68
2022/05/04 08:13:56;;;;;;;8.00;1.60;;;;;;;21.54;16.33;100450.55;104985;1271;68554;-68
2022/05/04 08:16:47;;;;;;;6.00;1.30;;;;;;;21.49;16.25;100448.58;104881;1271;73554;-70
2022/05/04 08:19:37;;;;;;;11.10;1.60;;;;;;;21.33;16.73;100451.27;104974;1271;59762;-71
2022/05/04 08:22:27;;;;;;;9.90;1.60;;;;;;;21.01;17.10;100451.45;105098;1271;59654;-65
2022/05/04 08:25:17;;;;;;;8.10;1.60;;;;;;;20.79;17.58;100452.38;105203;1268;73571;-66
2022/05/04 08:28:05;;;;;;;8.70;1.50;;;;;;;20.43;17.87;100455.25;105168;1271;68358;-63
2022/05/04 08:30:53;;;;;;;7.60;1.20;;;;;;;19.99;18.06;100461.39;104987;1269;74324;-70
2022/05/04 08:33:44;;;;;;;8.20;1.50;;;;;;;19.55;18.51;100462.20;104972;1271;59735;-67
2022/05/04 08:36:32;;;;;;;7.40;1.40;;;;;;;19.03;18.44;100466.58;104893;1271;60563;-69
2022/05/04 08:39:20;;;;;;;5.80;1.40;;;;;;;18.51;18.28;100469.81;104965;1271;73960;-72
2022/05/04 08:42:09;;;;;;;6.70;1.50;;;;;;;17.73;18.90;100472.49;104818;1271;69113;-69
2022/05/04 08:45:01;;;;;;;7.50;1.80;;;;;;;17.49;19.31;100470.38;104854;1271;72108;-70
2022/05/04 08:47:50;;;;;;;8.10;1.40;;;;;;;17.57;19.46;100471.23;104813;1271;59800;-69
2022/05/04 08:50:39;;;;;;;8.00;1.40;;;;;;;17.61;19.42;100469.96;104966;1271;59557;-71
2022/05/04 08:53:27;;;;;;;7.80;1.40;;;;;;;17.58;19.41;100475.05;104987;1271;73594;-68
2022/05/04 08:56:16;;;;;;;12.00;1.80;;;;;;;18.01;19.90;100474.30;105152;1271;67934;-68
2022/05/04 08:59:06;;;;;;;8.10;1.60;;;;;;;18.47;19.89;100477.44;105373;1271;74281;-68
2022/05/04 09:01:54;;;;;;;7.70;2.10;;;;;;;18.74;19.73;100478.23;104937;1271;59945;-64
2022/05/04 09:04:43;;;;;;;8.00;1.60;;;;;;;19.07;19.53;100478.39;104855;1271;60530;-65
2022/05/04 09:07:31;;;;;;;8.30;1.60;;;;;;;19.38;18.48;100477.23;104568;1271;363784;-68
2022/05/04 09:10:31;;;;;;;7.60;2.10;;;;;;;19.49;17.35;100479.61;104787;1271;69761;-66
2022/05/04 09:13:20;;;;;;;6.70;2.00;;;;;;;19.57;18.03;100472.80;104672;1271;73127;-67
2022/05/04 09:16:23;;;;;;;9.80;1.40;;;;;;;20.07;18.60;100472.52;104778;1271;59669;-70
2022/05/04 09:19:15;;;;;;;8.10;1.70;;;;;;;20.50;17.84;100470.49;104982;1271;60233;-69
2022/05/04 09:22:14;;;;;;;6.90;1.60;;;;;;;19.91;17.40;100471.73;104749;1271;73617;-69
2022/05/04 09:25:02;;;;;;;6.80;1.70;;;;;;;19.28;18.08;100470.88;104702;1271;68422;-67
2022/05/04 09:27:56;;;;;;;5.90;1.60;;;;;;;19.34;19.49;100473.55;104703;1272;72990;-68
2022/05/04 09:30:56;;;;;;;10.40;1.80;;;;;;;19.53;20.12;100468.29;104759;1271;59944;-68
2022/05/04 09:33:53;;;;;;;8.90;1.90;;;;;;;19.75;20.03;100463.96;104678;1271;61074;-68
2022/05/04 09:46:08;;;;;;;14.80;3.10;;;;;;;21.55;20.03;100453.22;104769;1271;59749;-65
2022/05/04 09:48:57;;;;;;;12.20;3.10;;;;;;;22.24;19.37;100450.02;104855;1271;59646;-64
2022/05/04 09:51:53;;;;;;;9.00;2.30;;;;;;;22.69;18.49;100448.57;105189;1271;72838;-68
2022/05/04 09:54:41;;;;;;;10.80;2.80;;;;;;;23.23;18.19;100447.90;104919;1271;68068;-67
2022/05/04 09:57:29;;;;;;;12.20;3.10;;;;;;;23.69;17.58;100444.45;105052;1271;74380;-67
2022/05/04 10:00:21;;;;;;;11.30;2.60;;;;;;;24.01;17.48;100441.41;104916;1271;59666;-71
2022/05/04 10:03:09;;;;;;;9.80;2.30;;;;;;;24.18;16.66;100436.93;104963;1271;59618;-70
2022/05/04 10:06:00;;;;;;;8.90;2.50;;;;;;;24.33;16.73;100437.84;104874;1271;74611;-67
2022/05/04 10:08:48;;;;;;;9.80;2.50;;;;;;;24.66;16.66;100435.59;104946;1271;69533;-67
2022/05/04 10:11:37;;;;;;;8.00;1.70;;;;;;;24.84;15.72;100431.39;104837;1271;73266;-68
2022/05/04 10:14:27;;;;;;;9.40;2.30;;;;;;;24.86;16.17;100428.30;104728;1271;59733;-67
2022/05/04 10:17:21;;;;;;;7.50;2.40;;;;;;;24.73;16.15;100424.88;104795;1271;59656;-71
2022/05/04 10:20:21;;;;;;;11.40;2.30;;;;;;;24.57;16.00;100424.78;104850;1271;72188;-67
2022/05/04 10:23:29;;;;;;;8.90;2.10;;;;;;;24.54;15.90;100425.60;104773;1272;66672;-67
2022/05/04 10:26:31;;;;;;;8.90;1.80;;;;;;;24.67;15.88;100430.23;105021;1271;73695;-67
2022/05/04 10:32:37;;;;;;;8.10;2.30;;;;;;;24.77;15.87;100425.42;104686;1273;60499;-67
2022/05/04 10:35:46;;;;;;;9.00;2.20;;;;;;;25.16;15.96;100422.55;104792;1271;73723;-70
2022/05/04 10:38:34;;;;;;;8.40;2.60;;;;;;;25.64;15.71;100419.86;105095;1271;69179;-68
2022/05/04 10:41:39;;;;;;;8.70;2.00;;;;;;;25.90;15.35;100419.33;104764;1271;74345;-67
2022/05/04 10:44:53;;;;;;;8.40;2.00;;;;;;;26.08;15.36;100419.23;104825;1271;59644;-69
2022/05/04 10:47:41;;;;;;;10.00;2.10;;;;;;;25.98;14.96;100423.90;104888;1271;59662;-69
2022/05/04 10:51:22;;;;;;;7.80;2.10;;;;;;;25.66;15.39;100425.85;104730;1271;72520;-68
2022/05/04 10:54:21;;;;;;;8.90;1.60;;;;;;;25.78;15.93;100422.02;104950;1271;69256;-68
2022/05/04 10:57:15;;;;;;;7.80;1.60;;;;;;;25.93;15.74;100417.88;104936;1271;73985;-71
2022/05/04 11:00:04;;;;;;;7.50;1.70;;;;;;;26.18;15.80;100418.64;104763;1271;59755;-68
2022/05/04 11:02:56;;;;;;;8.10;1.70;;;;;;;26.13;15.97;100418.90;104930;1271;61983;-69
2022/05/04 11:05:47;;;;;;;8.50;1.90;;;;;;;26.49;15.42;100422.60;104834;1271;73869;-69
2022/05/04 11:08:36;;;;;;;8.10;1.80;;;;;;;26.66;15.66;100425.36;104967;1271;68582;-68
2022/05/04 11:11:25;;;;;;;8.50;1.90;;;;;;;26.80;15.31;100421.39;104982;1271;74196;-69
2022/05/04 11:14:16;;;;;;;10.60;2.50;;;;;;;26.86;15.16;100423.23;104818;1271;59653;-68
2022/05/04 11:17:13;;;;;;;6.80;1.60;;;;;;;26.52;15.43;100421.54;104907;1271;60052;-67
2022/05/04 11:20:02;;;;;;;8.70;1.80;;;;;;;25.96;15.56;100419.13;105185;1271;74761;-66
2022/05/04 11:22:54;;;;;;;10.10;1.70;;;;;;;25.56;16.50;100420.61;104853;1271;69935;-68
2022/05/04 11:25:49;;;;;;;7.90;2.00;;;;;;;25.07;16.67;100421.70;104943;1271;73372;-68
2022/05/04 11:28:36;;;;;;;8.50;1.80;;;;;;;24.37;17.02;100420.46;104714;1271;59550;-68
2022/05/04 11:31:25;;;;;;;7.60;1.70;;;;;;;23.85;17.64;100424.42;104953;1271;61821;-66
2022/05/04 11:34:19;;;;;;;6.40;1.40;;;;;;;23.60;18.61;100421.67;104848;1271;74087;-66
2022/05/04 11:37:14;;;;;;;8.00;1.50;;;;;;;23.17;18.55;100431.29;104826;1271;67807;-68
2022/05/04 11:40:15;;;;;;;6.50;1.50;;;;;;;22.60;19.37;100430.10;104857;1271;72250;-69
2022/05/04 11:43:04;;;;;;;6.60;1.70;;;;;;;22.02;19.55;100430.45;104990;1271;59608;-70
2022/05/04 11:45:52;;;;;;;7.30;1.70;;;;;;;21.62;20.30;100427.81;104703;1271;59672;-68
2022/05/04 11:48:47;;;;;;;6.70;1.80;;;;;;;21.19;20.35;100430.74;104920;1271;74789;-67
2022/05/04 11:51:35;;;;;;;7.90;1.40;;;;;;;20.53;21.56;100429.02;104677;1271;69228;-66
2022/05/04 11:54:24;;;;;;;7.90;1.50;;;;;;;19.97;22.61;100423.77;104942;1271;74526;-69
2022/05/04 11:57:13;;;;;;;6.90;1.50;;;;;;;19.44;22.60;100421.69;104855;1271;59856;-67
2022/05/04 12:00:14;;;;;;;6.60;1.40;;;;;;;18.82;22.98;100428.23;104719;1272;59650;-69
2022/05/04 12:03:07;;;;;;;7.20;1.80;;;;;;;18.31;23.51;100425.09;105100;1271;72714;-67
2022/05/04 12:05:56;;;;;;;8.10;1.50;;;;;;;17.94;24.15;100421.35;104828;1271;68908;-69
2022/05/04 12:08:45;;;;;;;7.10;1.60;;;;;;;17.67;24.95;100415.29;104669;1271;72585;-67
2022/05/04 12:11:33;;;;;;;8.50;1.50;;;;;;;17.38;24.81;100420.00;104635;1271;59676;-67
2022/05/04 12:14:21;;;;;;;7.20;1.30;;;;;;;17.07;25.33;100414.47;105011;1271;60586;-67
2022/05/04 12:17:09;;;;;;;6.50;1.60;;;;;;;16.76;26.06;100416.61;104859;1271;73914;-68
2022/05/04 12:19:57;;;;;;;7.30;1.50;;;;;;;16.52;26.23;100417.16;104767;1271;67495;-68
2022/05/04 12:22:46;;;;;;;5.60;1.30;;;;;;;16.25;26.35;100413.29;105007;1271;73452;-68
2022/05/04 12:25:34;;;;;;;5.90;1.50;;;;;;;16.04;26.64;100413.73;104966;1271;59825;-69
2022/05/04 12:28:21;;;;;;;5.50;1.30;;;;;;;15.86;27.20;100409.48;104907;1272;60343;-68
2022/05/04 12:34:18;;;;;;;7.10;1.40;;;;;;;15.66;27.28;100405.23;104795;1272;68693;-72
2022/05/04 12:37:08;;;;;;;6.80;1.40;;;;;;;15.54;27.36;100403.33;105076;1271;72249;-66
2022/05/04 12:39:56;;;;;;;5.90;1.40;;;;;;;15.49;27.67;100404.64;104791;1271;61108;-71
2022/05/04 12:42:45;;;;;;;7.80;1.50;;;;;;;15.45;27.69;100408.42;105085;1271;59618;-68
2022/05/04 12:45:38;;;;;;;10.30;1.80;;;;;;;15.37;27.44;100408.69;104982;1271;74696;-67
2022/05/04 12:48:27;;;;;;;8.10;1.30;;;;;;;15.27;27.33;100402.63;105006;1271;68529;-66
2022/05/04 12:51:17;;;;;;;8.30;1.60;;;;;;;15.20;27.77;100401.44;104745;1271;74378;-68
2022/05/04 12:54:06;;;;;;;6.60;1.40;;;;;;;15.17;27.83;100399.02;105149;1271;59788;-67
2022/05/04 12:56:54;;;;;;;6.00;1.30;;;;;;;15.14;27.96;100396.05;104859;1271;60314;-68
2022/05/04 12:59:42;;;;;;;7.70;1.50;;;;;;;15.14;28.04;100395.60;104888;1271;73743;-69
2022/05/04 13:02:31;;;;;;;5.30;1.40;;;;;;;15.16;28.10;100398.82;104847;1271;67448;-69
2022/05/04 13:05:19;;;;;;;8.00;1.60;;;;;;;15.20;27.90;100394.52;104811;1271;71798;-68
2022/05/04 13:08:08;;;;;;;5.70;1.30;;;;;;;15.19;27.61;100398.16;104886;1271;60453;-65
2022/05/04 13:10:56;;;;;;;5.50;1.50;;;;;;;15.10;27.74;100395.37;105016;1271;59592;-70
2022/05/04 13:13:45;;;;;;;6.50;1.30;;;;;;;15.08;28.00;100393.25;104960;1271;73744;-70
2022/05/04 13:16:34;;;;;;;5.50;1.30;;;;;;;15.07;28.05;100389.92;104887;1271;69423;-68
2022/05/04 13:19:22;;;;;;;6.30;1.40;;;;;;;15.03;27.74;100389.27;104963;1273;71831;-70
2022/05/04 13:22:10;;;;;;;6.00;1.10;;;;;;;14.93;27.08;100388.36;105023;1271;59527;-69
2022/05/04 13:25:00;;;;;;;8.70;1.40;;;;;;;14.88;27.64;100383.28;104938;1271;59587;-67
2022/05/04 13:27:48;;;;;;;6.80;1.60;;;;;;;14.88;27.85;100382.77;105108;1272;74042;-67
2022/05/04 13:30:36;;;;;;;5.90;1.40;;;;;;;14.91;28.20;100381.73;104994;1271;67295;-67
2022/05/04 13:33:24;;;;;;;5.20;1.20;;;;;;;14.92;28.41;100384.73;104686;1271;73116;-66
2022/05/04 13:36:12;;;;;;;7.40;1.50;;;;;;;14.92;28.78;100380.75;104987;1271;59668;-67
2022/05/04 13:39:00;;;;;;;7.10;1.60;;;;;;;14.94;28.42;100383.04;104762;1271;62482;-70
2022/05/04 13:41:49;;;;;;;8.20;1.50;;;;;;;14.92;28.45;100377.54;104863;1271;74717;-67
2022/05/04 13:44:39;;;;;;;5.80;1.30;;;;;;;14.88;27.74;100381.48;104751;1271;69339;-67